Time;durP1;ratioP1;P1;durP2;ratioP2;P2;SDS_P1;SDS_P2;PMS_P1;PMS_P2;Temp;Humidity;BMP_temperature;BMP_pressure;BME280_temperature;BME280_humidity;BME280_pressure;Samples;Min_cycle;Max_cycle;Signal;HPM_P1;HPM_P2
2022/07/23 00:00:09;;;;;;;15.23;10.70;;;16.20;83.60;;;;;;5057255;28;20086;-75
2022/07/23 00:02:35;;;;;;;14.18;9.52;;;16.20;83.60;;;;;;5061222;28;20065;-75
2022/07/23 00:05:02;;;;;;;15.20;10.55;;;16.20;83.60;;;;;;5058406;28;20040;-76
2022/07/23 00:07:28;;;;;;;12.65;9.80;;;16.20;83.70;;;;;;5061323;28;20032;-75
2022/07/23 00:09:53;;;;;;;13.95;10.02;;;16.20;83.80;;;;;;5063085;28;20094;-75
2022/07/23 00:12:19;;;;;;;13.57;10.93;;;16.20;83.80;;;;;;5056931;28;20124;-75
2022/07/23 00:14:44;;;;;;;16.63;10.77;;;16.10;84.00;;;;;;5059925;28;20594;-75
2022/07/23 00:17:10;;;;;;;14.93;10.35;;;16.10;84.20;;;;;;5058181;28;20358;-75
2022/07/23 00:19:36;;;;;;;15.23;10.73;;;16.10;84.40;;;;;;5060248;28;20453;-75
2022/07/23 00:22:01;;;;;;;14.32;11.10;;;16.10;84.30;;;;;;5061677;28;20048;-75
2022/07/23 00:24:27;;;;;;;12.48;9.90;;;16.00;84.40;;;;;;5060216;28;20488;-75
2022/07/23 00:26:53;;;;;;;13.20;10.10;;;16.10;84.30;;;;;;5059226;28;20344;-75
2022/07/23 00:29:18;;;;;;;14.77;11.10;;;16.10;84.20;;;;;;5073834;28;20036;-75
2022/07/23 00:31:44;;;;;;;13.45;10.48;;;16.10;84.10;;;;;;5061178;28;20055;-75
2022/07/23 00:34:10;;;;;;;12.82;10.35;;;16.00;84.20;;;;;;5060615;28;20480;-75
2022/07/23 00:36:35;;;;;;;13.85;10.57;;;16.00;84.30;;;;;;5060591;28;20263;-75
2022/07/23 00:39:01;;;;;;;13.38;10.23;;;16.00;84.30;;;;;;5060650;28;20062;-75
2022/07/23 00:41:27;;;;;;;17.05;11.52;;;16.00;84.40;;;;;;5059685;28;20510;-75
2022/07/23 00:43:53;;;;;;;15.55;11.13;;;16.00;84.40;;;;;;5059926;28;20043;-75
2022/07/23 00:46:22;;;;;;;13.32;10.80;;;15.90;84.50;;;;;;5059575;28;20046;-75
2022/07/23 00:48:48;;;;;;;18.52;12.43;;;15.90;84.60;;;;;;5063473;28;20039;-75
2022/07/23 00:51:17;;;;;;;14.50;10.40;;;15.90;84.70;;;;;;5059791;28;20076;-75
2022/07/23 00:53:44;;;;;;;12.27;10.55;;;15.80;84.90;;;;;;5058691;28;20090;-75
2022/07/23 00:56:10;;;;;;;14.55;10.90;;;15.80;85.00;;;;;;5062925;28;20040;-75
2022/07/23 00:58:36;;;;;;;14.15;11.45;;;15.80;84.90;;;;;;5059988;28;20032;-75
2022/07/23 01:01:02;;;;;;;16.48;12.00;;;15.80;84.80;;;;;;5058372;28;20032;-75
2022/07/23 01:03:27;;;;;;;16.05;11.73;;;15.70;84.90;;;;;;5061346;28;20033;-74
2022/07/23 01:05:53;;;;;;;14.20;11.05;;;15.70;84.90;;;;;;5060373;28;20067;-74
2022/07/23 01:08:20;;;;;;;14.23;11.43;;;15.60;85.00;;;;;;5064070;28;20383;-74
2022/07/23 01:10:48;;;;;;;14.80;11.40;;;15.60;85.20;;;;;;5059952;28;20041;-74
2022/07/23 01:13:13;;;;;;;14.85;11.02;;;15.60;85.10;;;;;;5059314;28;20036;-74
2022/07/23 01:15:39;;;;;;;13.63;10.52;;;15.70;85.10;;;;;;5060112;28;20077;-75
2022/07/23 01:18:07;;;;;;;15.70;12.02;;;15.70;85.10;;;;;;5059750;28;20115;-75
2022/07/23 01:20:32;;;;;;;14.25;11.80;;;15.60;85.00;;;;;;5059253;28;21380;-75
2022/07/23 01:22:58;;;;;;;16.10;12.27;;;15.60;84.90;;;;;;5059101;28;20359;-74
2022/07/23 01:25:25;;;;;;;13.90;11.55;;;15.60;84.90;;;;;;5060163;28;20435;-74
2022/07/23 01:27:52;;;;;;;15.05;12.00;;;15.60;84.80;;;;;;5060963;28;20432;-74
2022/07/23 01:30:19;;;;;;;17.25;12.05;;;15.60;84.80;;;;;;5055411;28;20032;-74
2022/07/23 01:32:44;;;;;;;13.10;11.10;;;15.60;84.90;;;;;;5054087;28;20499;-74
2022/07/23 01:35:10;;;;;;;15.60;11.65;;;15.60;84.90;;;;;;5059088;28;20115;-74
2022/07/23 01:37:37;;;;;;;12.60;10.40;;;15.50;85.00;;;;;;5056925;28;20141;-74
2022/07/23 01:40:04;;;;;;;13.73;11.82;;;15.50;85.00;;;;;;5058604;28;20040;-74
2022/07/23 01:42:30;;;;;;;16.70;12.30;;;15.50;85.10;;;;;;5058498;28;20041;-74
2022/07/23 01:44:55;;;;;;;15.43;11.70;;;15.50;85.00;;;;;;5061841;28;20032;-74
2022/07/23 01:47:21;;;;;;;13.95;11.27;;;15.50;85.00;;;;;;5060351;28;20045;-75
2022/07/23 01:49:47;;;;;;;15.65;12.00;;;15.50;85.00;;;;;;5059049;28;20044;-75
2022/07/23 01:52:13;;;;;;;13.75;10.95;;;15.50;84.80;;;;;;5057936;28;20096;-75
2022/07/23 01:54:39;;;;;;;16.83;11.75;;;15.40;84.80;;;;;;5056875;28;20033;-75
2022/07/23 01:57:06;;;;;;;15.82;12.18;;;15.40;84.80;;;;;;5059615;28;20395;-75
2022/07/23 01:59:32;;;;;;;14.57;12.45;;;15.40;84.90;;;;;;5059190;28;20444;-75
2022/07/23 02:01:58;;;;;;;15.18;12.02;;;15.40;84.90;;;;;;5059381;28;20328;-75
2022/07/23 02:04:24;;;;;;;14.15;11.73;;;15.40;84.90;;;;;;5060694;28;20059;-75
2022/07/23 02:06:51;;;;;;;14.18;11.35;;;15.30;84.90;;;;;;5061257;28;20036;-75
2022/07/23 02:09:17;;;;;;;14.15;11.77;;;15.30;84.80;;;;;;5061665;28;20156;-75
2022/07/23 02:11:43;;;;;;;13.85;11.00;;;15.30;84.80;;;;;;5058809;28;20380;-75
2022/07/23 02:14:09;;;;;;;15.52;12.02;;;15.30;84.70;;;;;;5053136;28;20032;-75
2022/07/23 02:16:35;;;;;;;16.92;12.27;;;15.20;84.60;;;;;;5057993;28;20631;-74
2022/07/23 02:19:01;;;;;;;15.70;11.48;;;15.20;84.40;;;;;;5056154;28;20040;-74
2022/07/23 02:21:26;;;;;;;17.25;12.98;;;15.20;84.40;;;;;;5057159;28;20036;-75
2022/07/23 02:23:52;;;;;;;14.77;13.15;;;15.10;84.60;;;;;;5059808;28;20039;-75
2022/07/23 02:26:17;;;;;;;17.63;13.82;;;15.10;84.80;;;;;;5046391;28;20044;-75
2022/07/23 02:28:43;;;;;;;15.00;12.27;;;15.10;85.20;;;;;;5060143;28;20075;-75
2022/07/23 02:31:09;;;;;;;16.15;13.48;;;15.10;85.40;;;;;;5056712;28;20950;-75
2022/07/23 02:33:35;;;;;;;16.55;13.45;;;15.10;85.70;;;;;;5058598;28;20056;-75
2022/07/23 02:36:00;;;;;;;17.38;13.20;;;15.10;85.80;;;;;;5058928;28;20028;-75
2022/07/23 02:38:26;;;;;;;16.48;13.93;;;15.10;85.80;;;;;;5057965;28;20194;-74
2022/07/23 02:40:52;;;;;;;17.70;13.05;;;15.10;85.80;;;;;;5056403;28;20123;-74
2022/07/23 02:43:18;;;;;;;17.77;14.00;;;15.10;85.80;;;;;;5058122;28;20048;-74
2022/07/23 02:45:43;;;;;;;17.65;14.60;;;15.10;86.00;;;;;;5059560;28;20487;-75
2022/07/23 02:48:12;;;;;;;17.10;13.50;;;15.00;86.10;;;;;;5059324;28;20315;-75
2022/07/23 02:50:38;;;;;;;16.50;13.25;;;15.00;86.30;;;;;;5060090;28;20037;-75
2022/07/23 02:53:04;;;;;;;19.58;15.10;;;15.00;86.40;;;;;;5060774;28;20063;-75
2022/07/23 02:55:31;;;;;;;18.58;14.25;;;15.00;86.50;;;;;;5062984;28;20456;-75
2022/07/23 02:57:56;;;;;;;18.70;14.98;;;15.00;86.40;;;;;;5062087;28;20040;-74
2022/07/23 03:00:22;;;;;;;18.92;15.25;;;14.90;86.40;;;;;;5063403;28;20107;-75
2022/07/23 03:02:48;;;;;;;16.17;13.13;;;15.00;86.50;;;;;;5069984;28;20280;-75
2022/07/23 03:05:13;;;;;;;18.05;13.50;;;14.90;86.30;;;;;;5062881;28;20446;-75
2022/07/23 03:07:39;;;;;;;15.00;13.20;;;14.80;86.10;;;;;;5062497;28;20035;-75
2022/07/23 03:10:05;;;;;;;13.77;12.18;;;14.80;85.70;;;;;;5063166;28;20044;-75
2022/07/23 03:12:30;;;;;;;18.40;14.32;;;14.80;85.70;;;;;;5061160;28;20120;-75
2022/07/23 03:14:56;;;;;;;16.13;13.13;;;14.80;85.60;;;;;;5063071;28;20148;-75
2022/07/23 03:17:22;;;;;;;15.90;12.82;;;14.80;85.70;;;;;;5065890;28;20370;-74
2022/07/23 03:19:47;;;;;;;14.80;12.30;;;14.80;85.60;;;;;;5063110;28;20024;-74
2022/07/23 03:22:13;;;;;;;13.57;11.85;;;14.80;85.60;;;;;;5061139;28;20376;-74
2022/07/23 03:24:54;;;;;;;15.15;11.65;;;14.80;85.50;;;;;;5060468;28;20113;-74
2022/07/23 03:27:20;;;;;;;14.02;11.50;;;14.80;85.60;;;;;;5060503;28;20091;-75
2022/07/23 03:29:46;;;;;;;15.60;12.68;;;14.80;85.30;;;;;;5062067;28;20036;-75
2022/07/23 03:32:11;;;;;;;16.02;12.20;;;14.80;85.10;;;;;;5061143;28;20037;-75
2022/07/23 03:34:37;;;;;;;14.20;12.38;;;14.80;85.00;;;;;;5060399;28;20368;-75
2022/07/23 03:37:03;;;;;;;16.35;12.38;;;14.70;85.00;;;;;;5058820;28;20487;-75
2022/07/23 03:39:29;;;;;;;13.85;11.60;;;14.70;85.10;;;;;;5059786;28;20052;-75
2022/07/23 03:41:54;;;;;;;15.75;13.00;;;14.70;85.10;;;;;;5065488;28;20059;-74
2022/07/23 03:44:20;;;;;;;18.08;15.02;;;14.70;85.10;;;;;;5060505;28;20432;-75
2022/07/23 03:46:48;;;;;;;16.10;13.85;;;14.60;85.00;;;;;;5059154;28;20033;-75
2022/07/23 03:49:14;;;;;;;15.50;13.15;;;14.60;85.10;;;;;;5062507;28;20047;-74
2022/07/23 03:51:39;;;;;;;18.70;14.13;;;14.60;85.50;;;;;;5061939;28;20037;-74
2022/07/23 03:54:05;;;;;;;17.25;13.43;;;14.60;85.40;;;;;;5064596;28;20123;-75
2022/07/23 03:56:31;;;;;;;15.15;13.43;;;14.60;85.40;;;;;;5064242;28;20040;-75
2022/07/23 03:58:56;;;;;;;14.35;12.23;;;14.60;85.30;;;;;;5062842;28;20116;-75
2022/07/23 04:01:22;;;;;;;16.05;13.27;;;14.70;85.20;;;;;;5061294;28;20809;-74
2022/07/23 04:03:47;;;;;;;17.70;14.52;;;14.70;85.20;;;;;;5060491;28;20068;-74
2022/07/23 04:06:13;;;;;;;17.52;12.90;;;14.70;85.20;;;;;;5059852;28;20127;-74
2022/07/23 04:08:39;;;;;;;17.73;14.88;;;14.80;85.40;;;;;;5065504;28;20402;-74
2022/07/23 04:11:05;;;;;;;15.55;13.60;;;14.80;85.30;;;;;;5059731;28;20095;-74
2022/07/23 04:13:32;;;;;;;18.95;15.05;;;14.80;85.50;;;;;;5065520;28;20033;-74
2022/07/23 04:15:58;;;;;;;17.70;14.50;;;14.90;85.50;;;;;;5059929;28;20051;-75
2022/07/23 04:18:24;;;;;;;21.80;14.85;;;15.00;85.50;;;;;;5057611;28;20460;-75
2022/07/23 04:20:51;;;;;;;18.90;14.77;;;15.10;85.60;;;;;;5059897;28;20048;-75
2022/07/23 04:23:17;;;;;;;18.88;14.80;;;15.10;85.50;;;;;;5059457;28;20032;-74
2022/07/23 04:25:42;;;;;;;18.45;14.80;;;15.10;85.50;;;;;;5061693;28;20097;-75
2022/07/23 04:28:08;;;;;;;19.35;15.30;;;15.20;85.40;;;;;;5056880;28;20039;-74
2022/07/23 04:30:34;;;;;;;19.85;16.45;;;15.30;85.50;;;;;;5056930;28;20452;-74
2022/07/23 04:32:59;;;;;;;20.55;16.42;;;15.30;85.40;;;;;;5059934;28;20028;-74
2022/07/23 04:35:25;;;;;;;18.17;14.68;;;15.30;85.20;;;;;;5062783;28;20546;-74
2022/07/23 04:37:51;;;;;;;20.98;16.38;;;15.30;85.30;;;;;;5059629;28;20043;-75
2022/07/23 04:40:16;;;;;;;20.58;16.33;;;15.40;84.80;;;;;;5061539;28;20087;-75
2022/07/23 04:42:42;;;;;;;24.85;17.73;;;15.20;84.80;;;;;;5061766;28;20059;-75
2022/07/23 04:45:08;;;;;;;23.13;18.73;;;15.10;85.40;;;;;;5071655;28;20087;-75
2022/07/23 04:47:34;;;;;;;21.75;19.25;;;15.00;86.20;;;;;;5066741;28;20025;-75
2022/07/23 04:50:02;;;;;;;23.73;19.17;;;15.00;86.90;;;;;;5061456;28;20068;-75
2022/07/23 04:52:28;;;;;;;22.63;19.38;;;14.90;87.10;;;;;;5056861;28;20428;-74
2022/07/23 04:54:54;;;;;;;20.05;16.85;;;15.00;87.10;;;;;;5064429;28;20051;-74
2022/07/23 04:57:19;;;;;;;19.40;16.65;;;15.10;87.60;;;;;;5059672;28;20060;-75
2022/07/23 04:59:45;;;;;;;23.70;18.65;;;15.20;87.40;;;;;;5059856;28;20510;-74
2022/07/23 05:02:10;;;;;;;20.30;17.75;;;15.40;86.90;;;;;;5057159;28;20138;-75
2022/07/23 05:04:36;;;;;;;20.42;16.10;;;15.40;86.30;;;;;;5059650;28;20028;-75
2022/07/23 05:07:03;;;;;;;18.00;15.98;;;15.60;86.40;;;;;;5060860;28;20036;-75
2022/07/23 05:09:28;;;;;;;18.35;15.88;;;15.70;86.10;;;;;;5063267;28;20047;-75
2022/07/23 05:11:54;;;;;;;20.17;16.20;;;15.90;85.40;;;;;;5061700;28;20048;-74
2022/07/23 05:14:20;;;;;;;18.08;16.13;;;16.10;84.80;;;;;;5058184;28;20459;-75
2022/07/23 05:16:45;;;;;;;18.23;14.93;;;16.10;84.20;;;;;;5061156;28;20067;-74
2022/07/23 05:19:11;;;;;;;17.65;15.55;;;16.30;83.60;;;;;;5060560;28;20039;-75
2022/07/23 05:21:36;;;;;;;17.45;14.50;;;16.40;82.70;;;;;;5062095;28;20369;-74
2022/07/23 05:24:02;;;;;;;17.55;14.07;;;16.40;82.40;;;;;;5061118;28;20376;-75
2022/07/23 05:26:28;;;;;;;16.25;12.90;;;16.50;82.90;;;;;;5061969;28;20086;-75
2022/07/23 05:28:53;;;;;;;17.30;14.02;;;16.60;82.40;;;;;;5059909;28;20056;-74
2022/07/23 05:31:19;;;;;;;18.02;14.57;;;16.70;81.60;;;;;;5060740;28;20072;-75
2022/07/23 05:33:45;;;;;;;16.00;13.75;;;16.70;81.70;;;;;;5065469;28;20453;-74
2022/07/23 05:36:10;;;;;;;17.75;14.75;;;16.70;81.40;;;;;;5056675;28;20415;-75
2022/07/23 05:38:36;;;;;;;22.58;14.85;;;17.10;81.70;;;;;;5059343;28;20472;-75
2022/07/23 05:41:02;;;;;;;19.55;13.55;;;18.20;78.80;;;;;;5061730;28;20044;-75
2022/07/23 05:43:28;;;;;;;23.45;13.13;;;19.20;75.50;;;;;;5067338;28;20546;-74
2022/07/23 05:45:53;;;;;;;16.40;12.60;;;19.70;71.10;;;;;;5068623;28;20042;-75
2022/07/23 05:48:19;;;;;;;17.48;12.73;;;20.10;70.40;;;;;;5059946;28;20384;-75
2022/07/23 05:50:46;;;;;;;17.95;11.68;;;20.70;68.90;;;;;;5064924;28;20032;-74
2022/07/23 05:53:12;;;;;;;17.77;12.13;;;21.10;67.10;;;;;;5063822;28;20059;-75
2022/07/23 05:55:38;;;;;;;15.68;11.15;;;21.50;65.70;;;;;;5064459;28;20060;-75
2022/07/23 05:58:03;;;;;;;17.23;12.20;;;21.80;64.10;;;;;;5057329;28;20025;-75
2022/07/23 06:00:29;;;;;;;16.88;12.48;;;22.10;63.40;;;;;;5063911;28;20041;-75
2022/07/23 06:02:54;;;;;;;15.15;12.35;;;22.10;62.90;;;;;;5059492;28;20571;-75
2022/07/23 06:05:20;;;;;;;15.50;13.05;;;21.70;63.50;;;;;;5063511;28;20655;-75
2022/07/23 06:07:46;;;;;;;18.15;13.40;;;21.00;65.40;;;;;;5060514;28;20103;-75
2022/07/23 06:10:12;;;;;;;16.40;14.20;;;20.30;68.00;;;;;;5060303;28;20135;-75
2022/07/23 06:12:38;;;;;;;15.18;13.27;;;19.80;69.50;;;;;;5058414;28;20045;-75
2022/07/23 06:15:04;;;;;;;17.60;15.10;;;19.30;72.70;;;;;;5063748;28;20373;-75
2022/07/23 06:17:29;;;;;;;18.92;15.00;;;19.10;72.90;;;;;;5057602;28;20380;-75
2022/07/23 06:19:55;;;;;;;16.30;13.85;;;19.10;73.60;;;;;;5062743;28;20024;-75
2022/07/23 06:22:22;;;;;;;19.60;15.43;;;18.90;73.20;;;;;;5058697;28;20040;-75
2022/07/23 06:24:48;;;;;;;19.17;15.48;;;18.80;73.60;;;;;;5063576;28;20052;-75
2022/07/23 06:27:14;;;;;;;18.85;14.90;;;18.80;75.00;;;;;;5066035;28;20143;-75
2022/07/23 06:29:40;;;;;;;19.38;14.60;;;19.00;75.10;;;;;;5064469;28;20135;-75
2022/07/23 06:32:06;;;;;;;18.92;15.23;;;19.20;74.00;;;;;;5066273;28;20337;-75
2022/07/23 06:34:32;;;;;;;22.17;15.10;;;19.50;73.20;;;;;;5067735;28;20028;-75
2022/07/23 06:36:58;;;;;;;16.77;14.80;;;19.60;72.90;;;;;;5066576;28;20032;-75
2022/07/23 06:39:24;;;;;;;18.90;15.65;;;19.70;72.30;;;;;;5065746;28;20094;-75
2022/07/23 06:41:50;;;;;;;18.02;14.48;;;19.90;71.80;;;;;;5064665;28;20507;-75
2022/07/23 06:44:15;;;;;;;18.08;14.70;;;20.00;71.70;;;;;;5064881;28;20037;-75
2022/07/23 06:46:41;;;;;;;18.52;13.77;;;20.20;71.50;;;;;;5062604;28;20021;-75
2022/07/23 06:49:07;;;;;;;17.83;14.68;;;20.40;69.90;;;;;;5064341;28;20117;-75
2022/07/23 06:51:33;;;;;;;19.30;14.30;;;20.60;70.10;;;;;;5061481;28;20893;-75
2022/07/23 06:53:59;;;;;;;18.25;13.38;;;20.60;69.50;;;;;;5067735;28;20028;-76
2022/07/23 06:56:24;;;;;;;19.50;14.80;;;20.60;69.80;;;;;;5064537;28;20158;-75
2022/07/23 06:58:50;;;;;;;18.52;14.95;;;20.70;69.20;;;;;;5066052;28;20115;-75
2022/07/23 07:01:16;;;;;;;18.55;14.82;;;20.80;70.20;;;;;;5064834;28;20476;-74
2022/07/23 07:03:41;;;;;;;19.17;14.65;;;21.20;69.40;;;;;;5074297;28;20037;-75
2022/07/23 07:06:07;;;;;;;18.88;13.45;;;21.40;67.10;;;;;;5070516;28;20100;-75
2022/07/23 07:08:33;;;;;;;16.20;14.02;;;21.60;67.60;;;;;;5068583;28;20031;-74
2022/07/23 07:10:58;;;;;;;18.30;14.18;;;21.60;67.20;;;;;;5068672;28;20089;-75
2022/07/23 07:13:24;;;;;;;17.08;13.48;;;21.60;67.50;;;;;;5065847;28;20044;-75
2022/07/23 07:15:49;;;;;;;17.90;13.07;;;21.90;67.00;;;;;;5065637;28;20578;-75
2022/07/23 07:18:15;;;;;;;15.95;12.85;;;21.80;65.60;;;;;;5070495;28;20258;-75
2022/07/23 07:20:41;;;;;;;18.73;14.10;;;21.80;65.00;;;;;;5068165;28;20036;-75
2022/07/23 07:23:06;;;;;;;15.70;12.48;;;21.90;65.50;;;;;;5069859;28;20028;-75
2022/07/23 07:25:32;;;;;;;16.38;13.20;;;22.00;65.80;;;;;;5066812;28;20039;-75
2022/07/23 07:27:58;;;;;;;19.02;14.40;;;22.10;65.20;;;;;;5067019;28;20183;-75
2022/07/23 07:30:23;;;;;;;16.65;13.55;;;22.10;66.00;;;;;;5071619;28;20036;-75
2022/07/23 07:32:49;;;;;;;14.43;12.20;;;22.10;65.10;;;;;;5071722;28;20024;-75
2022/07/23 07:35:14;;;;;;;16.42;13.70;;;22.30;63.90;;;;;;5066767;28;20109;-75
2022/07/23 07:37:40;;;;;;;16.80;12.88;;;22.30;63.10;;;;;;5066553;28;20158;-75
2022/07/23 07:40:07;;;;;;;17.98;13.45;;;22.40;64.30;;;;;;5067053;28;20578;-76
2022/07/23 07:42:32;;;;;;;17.48;13.68;;;22.60;62.80;;;;;;5061341;28;20051;-75
2022/07/23 07:44:58;;;;;;;16.95;12.00;;;22.60;62.50;;;;;;5060143;28;20041;-75
2022/07/23 07:47:23;;;;;;;19.40;14.80;;;22.60;63.10;;;;;;5063969;28;20544;-75
2022/07/23 07:49:49;;;;;;;15.40;12.80;;;22.50;63.20;;;;;;5061325;28;20141;-75
2022/07/23 07:52:15;;;;;;;14.23;12.15;;;22.60;63.40;;;;;;5058144;28;20056;-76
2022/07/23 07:54:41;;;;;;;15.93;11.93;;;22.50;63.50;;;;;;5065325;28;20039;-75
2022/07/23 07:57:06;;;;;;;14.45;11.57;;;22.50;64.00;;;;;;5061530;28;20093;-75
2022/07/23 07:59:32;;;;;;;17.83;13.68;;;22.60;65.10;;;;;;5060735;28;20040;-75
2022/07/23 08:01:57;;;;;;;18.00;13.15;;;22.40;64.00;;;;;;5060698;28;20485;-75
2022/07/23 08:04:23;;;;;;;17.77;12.65;;;22.30;64.00;;;;;;5059523;28;20044;-75
2022/07/23 08:06:49;;;;;;;17.25;12.88;;;22.40;64.00;;;;;;5064685;28;20032;-75
2022/07/23 08:09:14;;;;;;;15.20;11.70;;;22.60;63.60;;;;;;5061287;28;20162;-75
2022/07/23 08:11:40;;;;;;;16.55;13.30;;;22.70;63.80;;;;;;5067054;28;20472;-75
2022/07/23 08:14:06;;;;;;;19.90;13.18;;;22.90;61.60;;;;;;5060446;28;20521;-75
2022/07/23 08:16:31;;;;;;;14.02;10.90;;;22.80;62.50;;;;;;5057686;28;20044;-75
2022/07/23 08:18:57;;;;;;;16.30;12.48;;;23.00;62.20;;;;;;5064298;28;20503;-75
2022/07/23 08:21:23;;;;;;;14.25;11.82;;;23.20;62.40;;;;;;5059844;28;20048;-75
2022/07/23 08:23:48;;;;;;;18.10;13.10;;;23.50;61.10;;;;;;5065274;28;20151;-75
2022/07/23 08:26:14;;;;;;;18.50;14.23;;;23.50;61.00;;;;;;5059932;28;20140;-75
2022/07/23 08:28:40;;;;;;;18.55;13.30;;;23.60;60.00;;;;;;5061104;28;20051;-75
2022/07/23 08:31:05;;;;;;;18.00;13.18;;;23.50;60.30;;;;;;5060220;28;20574;-75
2022/07/23 08:33:31;;;;;;;15.65;11.90;;;23.50;61.20;;;;;;5056337;28;20058;-74
2022/07/23 08:35:58;;;;;;;18.05;12.23;;;23.70;59.00;;;;;;5059643;28;20038;-76
2022/07/23 08:38:24;;;;;;;19.20;12.68;;;23.80;58.50;;;;;;5060634;28;20032;-75
2022/07/23 08:40:57;;;;;;;15.00;11.82;;;23.70;58.00;;;;;;5068217;28;20554;-74
2022/07/23 08:43:31;;;;;;;15.48;12.05;;;23.80;58.20;;;;;;5060741;28;20090;-74
2022/07/23 08:45:58;;;;;;;13.85;10.35;;;23.70;58.30;;;;;;5059860;28;20484;-74
2022/07/23 08:48:34;;;;;;;18.33;12.52;;;23.90;57.20;;;;;;5060271;28;20094;-74
2022/07/23 08:51:02;;;;;;;12.95;10.30;;;24.10;55.30;;;;;;5060033;28;20051;-74
2022/07/23 08:53:29;;;;;;;13.85;11.07;;;24.20;54.80;;;;;;5063637;28;20052;-76
2022/07/23 08:55:57;;;;;;;16.45;11.38;;;24.20;56.30;;;;;;5063047;28;20071;-75
2022/07/23 08:58:24;;;;;;;14.90;11.50;;;24.70;54.60;;;;;;5059923;28;20055;-74
2022/07/23 09:00:50;;;;;;;14.00;10.40;;;24.80;54.20;;;;;;5062047;28;20032;-74
2022/07/23 09:03:18;;;;;;;15.27;11.20;;;25.00;53.30;;;;;;5062695;28;20586;-74
2022/07/23 09:05:45;;;;;;;12.25;8.88;;;25.00;52.10;;;;;;5057357;28;20155;-74
2022/07/23 09:08:17;;;;;;;10.65;8.45;;;24.90;51.50;;;;;;5061265;28;20098;-75
2022/07/23 09:10:46;;;;;;;12.85;7.53;;;24.70;50.80;;;;;;5059302;28;20063;-75
2022/07/23 09:13:25;;;;;;;10.50;5.82;;;24.90;49.80;;;;;;5059685;28;20523;-76
2022/07/23 09:15:53;;;;;;;10.35;5.60;;;24.60;47.70;;;;;;5062790;28;20075;-75
2022/07/23 09:18:18;;;;;;;11.18;6.78;;;25.00;48.70;;;;;;5058757;28;20068;-74
2022/07/23 09:20:44;;;;;;;6.50;3.80;;;25.10;48.30;;;;;;5059160;28;20130;-74
2022/07/23 09:23:10;;;;;;;10.30;6.72;;;25.30;44.50;;;;;;5059484;28;20113;-75
2022/07/23 09:25:36;;;;;;;8.50;5.35;;;25.40;46.90;;;;;;5057946;28;20037;-75
2022/07/23 09:28:02;;;;;;;9.02;5.10;;;25.60;45.10;;;;;;5059018;28;20048;-76
2022/07/23 09:30:34;;;;;;;11.95;8.43;;;25.30;44.50;;;;;;5059644;28;20114;-75
2022/07/23 09:33:15;;;;;;;11.48;7.45;;;25.10;50.10;;;;;;5059578;28;20047;-75
2022/07/23 09:35:58;;;;;;;10.57;7.45;;;25.40;47.90;;;;;;5060653;28;20131;-75
2022/07/23 09:38:25;;;;;;;9.98;6.32;;;25.80;47.10;;;;;;5056927;28;20093;-75
2022/07/23 09:41:08;;;;;;;9.25;5.82;;;26.30;44.20;;;;;;5067449;28;20082;-75
2022/07/23 09:43:33;;;;;;;8.57;5.10;;;26.60;43.80;;;;;;5059134;28;20399;-75
2022/07/23 09:46:19;;;;;;;9.88;5.03;;;26.80;42.00;;;;;;5054867;28;20472;-75
2022/07/23 09:48:45;;;;;;;9.80;5.43;;;26.90;41.20;;;;;;5058612;28;20139;-75
2022/07/23 09:51:10;;;;;;;12.23;7.40;;;26.90;43.80;;;;;;5054158;28;20064;-76
2022/07/23 09:53:36;;;;;;;10.82;7.32;;;27.00;44.20;;;;;;5054311;28;20123;-75
2022/07/23 09:56:02;;;;;;;11.30;6.72;;;27.00;45.80;;;;;;5048640;28;20550;-76
2022/07/23 09:58:30;;;;;;;8.85;6.43;;;27.20;45.20;;;;;;5044602;28;20032;-75
2022/07/23 10:00:57;;;;;;;11.23;7.85;;;27.30;44.70;;;;;;5059896;28;20051;-74
2022/07/23 10:03:24;;;;;;;11.90;7.53;;;27.40;43.30;;;;;;5059709;28;20034;-74
2022/07/23 10:05:50;;;;;;;10.75;8.13;;;27.30;43.00;;;;;;5058029;28;20037;-75
2022/07/23 10:08:18;;;;;;;12.43;7.30;;;27.30;43.10;;;;;;5047204;28;20620;-74
2022/07/23 10:10:46;;;;;;;11.73;7.63;;;27.20;44.10;;;;;;5047290;28;20105;-74
2022/07/23 10:15:57;;;;;;;8.65;6.47;;;27.00;44.60;;;;;;5059946;28;20048;-74
2022/07/23 10:18:24;;;;;;;12.70;8.35;;;27.10;44.50;;;;;;5057294;28;20037;-75
2022/07/23 10:20:50;;;;;;;12.50;8.88;;;27.10;44.40;;;;;;5061075;28;20186;-77
2022/07/23 10:23:37;;;;;;;12.63;7.82;;;26.90;44.30;;;;;;5068661;28;20032;-75
2022/07/23 10:26:32;;;;;;;10.57;7.75;;;26.80;44.60;;;;;;5065817;28;20035;-76
2022/07/23 10:29:32;;;;;;;11.10;8.32;;;26.70;44.70;;;;;;5059871;28;20032;-74
2022/07/23 10:32:10;;;;;;;11.32;8.82;;;26.60;44.80;;;;;;5053411;28;20349;-75
2022/07/23 10:35:06;;;;;;;14.18;8.18;;;26.70;45.30;;;;;;5061352;28;20040;-75
2022/07/23 10:37:41;;;;;;;13.57;8.95;;;26.90;44.90;;;;;;5056894;28;20087;-75
2022/07/23 10:40:22;;;;;;;11.32;9.63;;;27.10;46.60;;;;;;5058167;28;20051;-75
2022/07/23 10:42:51;;;;;;;12.60;9.00;;;27.20;43.90;;;;;;5059709;28;20179;-74
2022/07/23 10:45:33;;;;;;;10.43;7.85;;;27.20;43.90;;;;;;5062572;28;20048;-74
2022/07/23 10:48:26;;;;;;;13.25;8.15;;;27.10;44.80;;;;;;5060975;28;20119;-75
2022/07/23 10:51:14;;;;;;;11.45;8.68;;;27.50;44.20;;;;;;5060216;28;20094;-75
2022/07/23 10:53:53;;;;;;;10.50;7.55;;;27.40;44.60;;;;;;5060135;28;20049;-74
2022/07/23 10:56:56;;;;;;;11.43;7.70;;;27.70;44.00;;;;;;5058670;28;20074;-75
2022/07/23 10:59:22;;;;;;;11.93;7.28;;;27.80;44.10;;;;;;5060824;28;20055;-75
2022/07/23 11:01:49;;;;;;;12.88;8.63;;;27.90;44.00;;;;;;5060241;28;20630;-75
2022/07/23 11:04:15;;;;;;;12.18;7.88;;;28.10;43.30;;;;;;5055482;28;20028;-74
2022/07/23 11:07:04;;;;;;;11.57;7.82;;;27.80;43.70;;;;;;5063419;28;20037;-74
2022/07/23 11:09:38;;;;;;;11.55;6.97;;;27.50;43.10;;;;;;5051603;28;20074;-75
2022/07/23 11:12:26;;;;;;;9.50;5.82;;;27.40;43.50;;;;;;5065772;28;20055;-75
2022/07/23 11:15:13;;;;;;;7.85;5.28;;;27.70;42.70;;;;;;5070009;28;20033;-74
2022/07/23 11:17:51;;;;;;;9.43;5.15;;;27.80;42.00;;;;;;5063942;28;20033;-74
2022/07/23 11:20:20;;;;;;;8.10;5.38;;;27.90;42.20;;;;;;5068422;28;20176;-74
2022/07/23 11:22:47;;;;;;;9.18;5.30;;;28.00;42.00;;;;;;5066214;28;20041;-74
2022/07/23 11:25:22;;;;;;;11.02;5.63;;;27.80;41.60;;;;;;5063855;28;20032;-74
2022/07/23 11:27:50;;;;;;;8.32;5.95;;;27.60;43.40;;;;;;5066055;28;20059;-74
2022/07/23 11:30:28;;;;;;;8.80;5.88;;;27.50;41.70;;;;;;5070772;28;20121;-75
2022/07/23 11:33:14;;;;;;;11.60;6.00;;;27.80;43.00;;;;;;5066294;28;20519;-75
2022/07/23 11:35:42;;;;;;;10.20;5.22;;;28.10;41.40;;;;;;5065893;28;20047;-73
2022/07/23 11:38:14;;;;;;;6.95;4.00;;;28.10;40.90;;;;;;5066046;28;20032;-74
2022/07/23 11:40:41;;;;;;;10.30;5.28;;;28.60;42.00;;;;;;5061823;28;20439;-74
2022/07/23 11:43:09;;;;;;;11.55;6.60;;;28.60;40.70;;;;;;5061754;28;20438;-73
2022/07/23 11:45:43;;;;;;;10.20;6.50;;;28.90;40.40;;;;;;5063405;28;20427;-73
2022/07/23 11:48:20;;;;;;;10.27;5.70;;;28.70;40.40;;;;;;5062967;28;20472;-74
2022/07/23 11:50:47;;;;;;;9.80;5.07;;;28.30;41.40;;;;;;5061584;28;20120;-75
2022/07/23 11:53:13;;;;;;;9.60;5.20;;;28.40;42.70;;;;;;5063497;28;20032;-74
2022/07/23 11:55:39;;;;;;;9.25;5.32;;;28.30;42.00;;;;;;5066990;28;20033;-74
2022/07/23 11:58:05;;;;;;;8.90;5.07;;;28.50;41.30;;;;;;5065205;28;20670;-74
2022/07/23 12:00:32;;;;;;;7.78;5.00;;;28.70;40.00;;;;;;5063290;28;20089;-74
2022/07/23 12:03:01;;;;;;;7.80;4.47;;;29.00;39.20;;;;;;5062299;28;20041;-74
2022/07/23 12:05:33;;;;;;;16.05;4.68;;;28.50;40.40;;;;;;5064578;28;20085;-74
2022/07/23 12:08:00;;;;;;;8.55;4.57;;;28.80;40.30;;;;;;5063367;28;20036;-74
2022/07/23 12:10:38;;;;;;;20.17;6.28;;;28.90;39.80;;;;;;5058226;28;21723;-73
2022/07/23 12:13:10;;;;;;;8.52;4.65;;;29.10;38.60;;;;;;5061499;28;20036;-73
2022/07/23 12:15:41;;;;;;;9.45;4.57;;;29.40;38.90;;;;;;5058510;28;20100;-74
2022/07/23 12:18:10;;;;;;;10.70;4.72;;;29.20;39.10;;;;;;5056484;28;20047;-74
2022/07/23 12:20:44;;;;;;;11.45;5.82;;;29.40;39.10;;;;;;5054749;28;20029;-74
2022/07/23 12:23:12;;;;;;;8.40;4.95;;;29.20;38.50;;;;;;5060807;28;20373;-73
2022/07/23 12:25:43;;;;;;;9.43;5.40;;;28.90;40.40;;;;;;5062336;28;20079;-74
2022/07/23 12:28:19;;;;;;;8.30;4.72;;;28.80;40.80;;;;;;5058627;28;20052;-74
2022/07/23 12:30:55;;;;;;;10.15;5.40;;;28.50;41.50;;;;;;5063428;28;20037;-74
2022/07/23 12:33:26;;;;;;;15.60;6.40;;;28.50;40.40;;;;;;5059216;28;20040;-74
2022/07/23 12:35:55;;;;;;;8.50;5.20;;;28.90;41.00;;;;;;5061884;28;20029;-74